sensor_id;sensor_type;location;lat;lon;timestamp;P1;durP1;ratioP1;P2;durP2;ratioP2
9420;SDS011;4749;51.398;5.466;2023-07-29T00:02:20;4.22;;;3.28;;
9420;SDS011;4749;51.398;5.466;2023-07-29T00:04:47;4.88;;;2.92;;
9420;SDS011;4749;51.398;5.466;2023-07-29T00:07:14;6.95;;;3.80;;
9420;SDS011;4749;51.398;5.466;2023-07-29T00:09:41;5.20;;;2.80;;
9420;SDS011;4749;51.398;5.466;2023-07-29T00:12:08;4.57;;;2.60;;
9420;SDS011;4749;51.398;5.466;2023-07-29T00:14:35;5.28;;;2.83;;
9420;SDS011;4749;51.398;5.466;2023-07-29T00:17:02;3.47;;;2.67;;
9420;SDS011;4749;51.398;5.466;2023-07-29T00:19:30;4.25;;;2.80;;
9420;SDS011;4749;51.398;5.466;2023-07-29T00:21:57;3.08;;;2.78;;
9420;SDS011;4749;51.398;5.466;2023-07-29T00:24:23;3.38;;;2.88;;
9420;SDS011;4749;51.398;5.466;2023-07-29T00:26:51;3.67;;;3.10;;
9420;SDS011;4749;51.398;5.466;2023-07-29T00:29:18;2.90;;;2.47;;
9420;SDS011;4749;51.398;5.466;2023-07-29T00:31:45;3.55;;;2.63;;
9420;SDS011;4749;51.398;5.466;2023-07-29T00:34:12;3.25;;;2.95;;
9420;SDS011;4749;51.398;5.466;2023-07-29T00:36:43;2.95;;;2.55;;
9420;SDS011;4749;51.398;5.466;2023-07-29T00:39:11;2.70;;;2.33;;
9420;SDS011;4749;51.398;5.466;2023-07-29T00:41:38;6.32;;;3.58;;
9420;SDS011;4749;51.398;5.466;2023-07-29T00:44:06;3.20;;;2.90;;
9420;SDS011;4749;51.398;5.466;2023-07-29T00:46:34;5.38;;;3.70;;
9420;SDS011;4749;51.398;5.466;2023-07-29T00:49:05;4.07;;;3.03;;
9420;SDS011;4749;51.398;5.466;2023-07-29T00:51:34;3.10;;;2.85;;
9420;SDS011;4749;51.398;5.466;2023-07-29T00:54:01;3.33;;;3.00;;
9420;SDS011;4749;51.398;5.466;2023-07-29T00:56:29;2.95;;;2.70;;
9420;SDS011;4749;51.398;5.466;2023-07-29T00:58:56;3.75;;;3.00;;
9420;SDS011;4749;51.398;5.466;2023-07-29T01:01:28;4.55;;;3.25;;
9420;SDS011;4749;51.398;5.466;2023-07-29T01:03:59;4.82;;;3.13;;
9420;SDS011;4749;51.398;5.466;2023-07-29T01:06:41;6.72;;;3.17;;
9420;SDS011;4749;51.398;5.466;2023-07-29T01:15:22;5.88;;;2.60;;
9420;SDS011;4749;51.398;5.466;2023-07-29T01:18:49;4.45;;;3.05;;
9420;SDS011;4749;51.398;5.466;2023-07-29T01:21:06;3.58;;;2.88;;
9420;SDS011;4749;51.398;5.466;2023-07-29T01:23:36;3.72;;;2.97;;
9420;SDS011;4749;51.398;5.466;2023-07-29T01:26:03;4.85;;;2.88;;
9420;SDS011;4749;51.398;5.466;2023-07-29T01:28:33;6.90;;;2.90;;
9420;SDS011;4749;51.398;5.466;2023-07-29T01:31:12;4.78;;;2.90;;
9420;SDS011;4749;51.398;5.466;2023-07-29T01:33:53;4.57;;;2.90;;
9420;SDS011;4749;51.398;5.466;2023-07-29T01:36:28;5.22;;;2.90;;
9420;SDS011;4749;51.398;5.466;2023-07-29T01:38:59;3.40;;;2.80;;
9420;SDS011;4749;51.398;5.466;2023-07-29T01:41:28;3.00;;;2.70;;
9420;SDS011;4749;51.398;5.466;2023-07-29T01:43:55;4.28;;;2.90;;
9420;SDS011;4749;51.398;5.466;2023-07-29T01:46:24;4.13;;;2.65;;
9420;SDS011;4749;51.398;5.466;2023-07-29T01:48:52;4.63;;;3.40;;
9420;SDS011;4749;51.398;5.466;2023-07-29T01:51:19;4.25;;;2.88;;
9420;SDS011;4749;51.398;5.466;2023-07-29T01:53:48;5.65;;;2.80;;
9420;SDS011;4749;51.398;5.466;2023-07-29T01:56:15;5.97;;;3.28;;
9420;SDS011;4749;51.398;5.466;2023-07-29T01:58:42;5.07;;;3.17;;
9420;SDS011;4749;51.398;5.466;2023-07-29T02:01:09;5.40;;;3.53;;
9420;SDS011;4749;51.398;5.466;2023-07-29T02:03:36;5.88;;;3.78;;
9420;SDS011;4749;51.398;5.466;2023-07-29T02:06:03;5.10;;;4.13;;
9420;SDS011;4749;51.398;5.466;2023-07-29T02:08:30;7.65;;;4.40;;
9420;SDS011;4749;51.398;5.466;2023-07-29T02:10:58;5.75;;;4.32;;
9420;SDS011;4749;51.398;5.466;2023-07-29T02:13:25;7.25;;;4.03;;
9420;SDS011;4749;51.398;5.466;2023-07-29T02:15:52;6.13;;;3.55;;
9420;SDS011;4749;51.398;5.466;2023-07-29T02:18:19;5.53;;;3.50;;
9420;SDS011;4749;51.398;5.466;2023-07-29T02:20:46;11.18;;;4.25;;
9420;SDS011;4749;51.398;5.466;2023-07-29T02:23:16;6.95;;;3.75;;
9420;SDS011;4749;51.398;5.466;2023-07-29T02:25:46;6.03;;;4.13;;
9420;SDS011;4749;51.398;5.466;2023-07-29T02:28:13;5.50;;;3.78;;
9420;SDS011;4749;51.398;5.466;2023-07-29T02:30:40;5.70;;;4.30;;
9420;SDS011;4749;51.398;5.466;2023-07-29T02:33:10;4.82;;;3.67;;
9420;SDS011;4749;51.398;5.466;2023-07-29T02:35:38;8.13;;;4.15;;
9420;SDS011;4749;51.398;5.466;2023-07-29T02:38:11;6.40;;;3.90;;
9420;SDS011;4749;51.398;5.466;2023-07-29T02:40:38;4.80;;;3.88;;
9420;SDS011;4749;51.398;5.466;2023-07-29T02:43:05;7.57;;;4.22;;
9420;SDS011;4749;51.398;5.466;2023-07-29T02:45:32;7.38;;;4.25;;
9420;SDS011;4749;51.398;5.466;2023-07-29T02:48:00;6.15;;;4.03;;
9420;SDS011;4749;51.398;5.466;2023-07-29T02:50:29;4.32;;;3.60;;
9420;SDS011;4749;51.398;5.466;2023-07-29T02:52:57;7.53;;;4.03;;
9420;SDS011;4749;51.398;5.466;2023-07-29T02:55:25;6.88;;;4.38;;
9420;SDS011;4749;51.398;5.466;2023-07-29T02:57:53;5.68;;;4.30;;
9420;SDS011;4749;51.398;5.466;2023-07-29T03:00:21;5.60;;;3.83;;
9420;SDS011;4749;51.398;5.466;2023-07-29T03:02:49;5.38;;;3.38;;
9420;SDS011;4749;51.398;5.466;2023-07-29T03:05:17;6.28;;;3.88;;
9420;SDS011;4749;51.398;5.466;2023-07-29T03:07:44;5.88;;;3.40;;
9420;SDS011;4749;51.398;5.466;2023-07-29T03:10:14;6.45;;;3.60;;
9420;SDS011;4749;51.398;5.466;2023-07-29T03:12:41;6.15;;;3.50;;
9420;SDS011;4749;51.398;5.466;2023-07-29T03:15:08;4.00;;;3.13;;
9420;SDS011;4749;51.398;5.466;2023-07-29T03:17:36;3.45;;;2.88;;
9420;SDS011;4749;51.398;5.466;2023-07-29T03:20:04;5.28;;;3.10;;
9420;SDS011;4749;51.398;5.466;2023-07-29T03:22:35;4.63;;;2.78;;
9420;SDS011;4749;51.398;5.466;2023-07-29T03:25:03;6.47;;;3.10;;
9420;SDS011;4749;51.398;5.466;2023-07-29T03:27:32;4.15;;;2.60;;
9420;SDS011;4749;51.398;5.466;2023-07-29T03:29:59;3.72;;;2.70;;
9420;SDS011;4749;51.398;5.466;2023-07-29T03:32:27;5.53;;;3.10;;
9420;SDS011;4749;51.398;5.466;2023-07-29T03:34:54;3.60;;;2.60;;
9420;SDS011;4749;51.398;5.466;2023-07-29T03:37:21;5.28;;;2.67;;
9420;SDS011;4749;51.398;5.466;2023-07-29T03:39:48;7.70;;;3.15;;
9420;SDS011;4749;51.398;5.466;2023-07-29T03:42:16;4.90;;;3.17;;
9420;SDS011;4749;51.398;5.466;2023-07-29T03:44:43;5.65;;;3.13;;
9420;SDS011;4749;51.398;5.466;2023-07-29T03:47:10;4.85;;;3.00;;
9420;SDS011;4749;51.398;5.466;2023-07-29T03:49:37;3.63;;;2.95;;
9420;SDS011;4749;51.398;5.466;2023-07-29T03:52:04;6.57;;;3.53;;
9420;SDS011;4749;51.398;5.466;2023-07-29T03:54:32;3.25;;;2.45;;
9420;SDS011;4749;51.398;5.466;2023-07-29T03:56:59;5.50;;;2.72;;
9420;SDS011;4749;51.398;5.466;2023-07-29T03:59:26;4.55;;;2.40;;
9420;SDS011;4749;51.398;5.466;2023-07-29T04:01:53;4.05;;;3.13;;
9420;SDS011;4749;51.398;5.466;2023-07-29T04:04:22;3.60;;;2.22;;
9420;SDS011;4749;51.398;5.466;2023-07-29T04:06:49;3.25;;;2.30;;
9420;SDS011;4749;51.398;5.466;2023-07-29T04:09:16;3.80;;;2.45;;
9420;SDS011;4749;51.398;5.466;2023-07-29T04:11:43;6.03;;;2.53;;
9420;SDS011;4749;51.398;5.466;2023-07-29T04:14:10;4.60;;;2.35;;
9420;SDS011;4749;51.398;5.466;2023-07-29T04:16:37;6.00;;;2.38;;
9420;SDS011;4749;51.398;5.466;2023-07-29T04:19:05;4.88;;;2.40;;
9420;SDS011;4749;51.398;5.466;2023-07-29T04:21:32;2.75;;;1.92;;
9420;SDS011;4749;51.398;5.466;2023-07-29T04:23:59;2.58;;;2.10;;
9420;SDS011;4749;51.398;5.466;2023-07-29T04:26:26;3.83;;;2.20;;
9420;SDS011;4749;51.398;5.466;2023-07-29T04:28:56;3.80;;;1.80;;
9420;SDS011;4749;51.398;5.466;2023-07-29T04:31:24;4.13;;;2.30;;
9420;SDS011;4749;51.398;5.466;2023-07-29T04:33:51;3.58;;;2.30;;
9420;SDS011;4749;51.398;5.466;2023-07-29T04:36:18;3.85;;;2.20;;
9420;SDS011;4749;51.398;5.466;2023-07-29T04:38:46;3.08;;;2.22;;
9420;SDS011;4749;51.398;5.466;2023-07-29T04:41:13;3.72;;;1.98;;
9420;SDS011;4749;51.398;5.466;2023-07-29T04:43:40;2.63;;;1.90;;
9420;SDS011;4749;51.398;5.466;2023-07-29T04:46:08;6.13;;;2.50;;
9420;SDS011;4749;51.398;5.466;2023-07-29T04:48:35;2.90;;;2.03;;
9420;SDS011;4749;51.398;5.466;2023-07-29T04:51:02;4.72;;;2.72;;
9420;SDS011;4749;51.398;5.466;2023-07-29T04:53:29;4.32;;;2.08;;
9420;SDS011;4749;51.398;5.466;2023-07-29T04:55:56;3.13;;;2.20;;
9420;SDS011;4749;51.398;5.466;2023-07-29T04:58:23;3.45;;;2.00;;
9420;SDS011;4749;51.398;5.466;2023-07-29T05:00:50;3.78;;;2.05;;
9420;SDS011;4749;51.398;5.466;2023-07-29T05:03:17;2.13;;;1.60;;
9420;SDS011;4749;51.398;5.466;2023-07-29T05:05:44;2.20;;;2.00;;
9420;SDS011;4749;51.398;5.466;2023-07-29T05:08:12;3.85;;;1.95;;
9420;SDS011;4749;51.398;5.466;2023-07-29T05:10:39;2.42;;;1.80;;
9420;SDS011;4749;51.398;5.466;2023-07-29T05:13:06;4.22;;;2.13;;
9420;SDS011;4749;51.398;5.466;2023-07-29T05:15:34;3.83;;;2.30;;
9420;SDS011;4749;51.398;5.466;2023-07-29T05:18:01;6.38;;;1.90;;
9420;SDS011;4749;51.398;5.466;2023-07-29T05:20:28;4.57;;;2.15;;
9420;SDS011;4749;51.398;5.466;2023-07-29T05:22:55;3.25;;;1.90;;
9420;SDS011;4749;51.398;5.466;2023-07-29T05:25:22;2.63;;;1.95;;
9420;SDS011;4749;51.398;5.466;2023-07-29T05:27:50;1.90;;;1.70;;
9420;SDS011;4749;51.398;5.466;2023-07-29T05:30:17;4.68;;;1.98;;
9420;SDS011;4749;51.398;5.466;2023-07-29T05:32:44;2.22;;;1.88;;
9420;SDS011;4749;51.398;5.466;2023-07-29T05:35:11;2.40;;;1.63;;
9420;SDS011;4749;51.398;5.466;2023-07-29T05:37:38;6.30;;;2.08;;
9420;SDS011;4749;51.398;5.466;2023-07-29T05:40:08;3.83;;;1.98;;
9420;SDS011;4749;51.398;5.466;2023-07-29T05:42:36;3.45;;;1.70;;
9420;SDS011;4749;51.398;5.466;2023-07-29T05:45:03;2.42;;;1.67;;
9420;SDS011;4749;51.398;5.466;2023-07-29T05:47:31;2.15;;;1.60;;
9420;SDS011;4749;51.398;5.466;2023-07-29T05:49:58;3.15;;;1.77;;
9420;SDS011;4749;51.398;5.466;2023-07-29T05:52:28;2.10;;;1.55;;
9420;SDS011;4749;51.398;5.466;2023-07-29T05:54:55;4.72;;;1.77;;
9420;SDS011;4749;51.398;5.466;2023-07-29T05:57:23;2.50;;;1.77;;
9420;SDS011;4749;51.398;5.466;2023-07-29T05:59:50;2.63;;;1.60;;
9420;SDS011;4749;51.398;5.466;2023-07-29T06:02:17;2.13;;;1.70;;
9420;SDS011;4749;51.398;5.466;2023-07-29T06:04:46;3.47;;;1.50;;
9420;SDS011;4749;51.398;5.466;2023-07-29T06:07:14;3.15;;;1.48;;
9420;SDS011;4749;51.398;5.466;2023-07-29T06:09:41;3.83;;;1.50;;
9420;SDS011;4749;51.398;5.466;2023-07-29T06:12:08;2.47;;;1.45;;
9420;SDS011;4749;51.398;5.466;2023-07-29T06:14:35;2.25;;;1.38;;
9420;SDS011;4749;51.398;5.466;2023-07-29T06:17:05;2.15;;;1.20;;
9420;SDS011;4749;51.398;5.466;2023-07-29T06:19:33;3.25;;;1.52;;
9420;SDS011;4749;51.398;5.466;2023-07-29T06:22:00;2.40;;;1.55;;
9420;SDS011;4749;51.398;5.466;2023-07-29T06:24:28;4.22;;;1.40;;
9420;SDS011;4749;51.398;5.466;2023-07-29T06:26:55;3.47;;;1.33;;
9420;SDS011;4749;51.398;5.466;2023-07-29T06:29:22;3.42;;;1.55;;
9420;SDS011;4749;51.398;5.466;2023-07-29T06:31:49;2.33;;;1.48;;
9420;SDS011;4749;51.398;5.466;2023-07-29T06:34:17;2.22;;;1.60;;
9420;SDS011;4749;51.398;5.466;2023-07-29T06:36:44;2.08;;;1.20;;
9420;SDS011;4749;51.398;5.466;2023-07-29T06:39:13;3.67;;;1.33;;
9420;SDS011;4749;51.398;5.466;2023-07-29T06:41:40;2.30;;;1.42;;
9420;SDS011;4749;51.398;5.466;2023-07-29T06:44:07;2.67;;;1.70;;
9420;SDS011;4749;51.398;5.466;2023-07-29T06:46:34;2.63;;;1.20;;
9420;SDS011;4749;51.398;5.466;2023-07-29T06:49:02;1.75;;;1.20;;
9420;SDS011;4749;51.398;5.466;2023-07-29T06:51:29;1.75;;;1.25;;
9420;SDS011;4749;51.398;5.466;2023-07-29T06:53:58;1.92;;;1.23;;
9420;SDS011;4749;51.398;5.466;2023-07-29T06:56:25;2.10;;;1.20;;
9420;SDS011;4749;51.398;5.466;2023-07-29T06:58:53;3.85;;;1.30;;
9420;SDS011;4749;51.398;5.466;2023-07-29T07:01:20;3.63;;;1.20;;
9420;SDS011;4749;51.398;5.466;2023-07-29T07:03:47;2.50;;;1.20;;
9420;SDS011;4749;51.398;5.466;2023-07-29T07:06:14;2.85;;;1.10;;
9420;SDS011;4749;51.398;5.466;2023-07-29T07:08:42;2.45;;;1.30;;
9420;SDS011;4749;51.398;5.466;2023-07-29T07:11:10;2.40;;;1.23;;
9420;SDS011;4749;51.398;5.466;2023-07-29T07:13:37;2.08;;;1.40;;
9420;SDS011;4749;51.398;5.466;2023-07-29T07:16:04;1.75;;;1.23;;
9420;SDS011;4749;51.398;5.466;2023-07-29T07:18:32;1.85;;;1.40;;
9420;SDS011;4749;51.398;5.466;2023-07-29T07:20:59;2.30;;;1.13;;
9420;SDS011;4749;51.398;5.466;2023-07-29T07:23:26;1.10;;;1.00;;
9420;SDS011;4749;51.398;5.466;2023-07-29T07:25:53;1.27;;;1.10;;
9420;SDS011;4749;51.398;5.466;2023-07-29T07:28:20;2.88;;;1.20;;
9420;SDS011;4749;51.398;5.466;2023-07-29T07:30:47;2.33;;;1.20;;
9420;SDS011;4749;51.398;5.466;2023-07-29T07:33:14;1.63;;;1.20;;
9420;SDS011;4749;51.398;5.466;2023-07-29T07:35:41;1.30;;;0.82;;
9420;SDS011;4749;51.398;5.466;2023-07-29T07:38:08;2.08;;;1.10;;
9420;SDS011;4749;51.398;5.466;2023-07-29T07:40:36;1.75;;;0.98;;
9420;SDS011;4749;51.398;5.466;2023-07-29T07:43:03;1.52;;;1.17;;
9420;SDS011;4749;51.398;5.466;2023-07-29T07:45:31;1.40;;;1.02;;
9420;SDS011;4749;51.398;5.466;2023-07-29T07:47:59;1.80;;;1.10;;
9420;SDS011;4749;51.398;5.466;2023-07-29T07:50:28;1.40;;;0.90;;
9420;SDS011;4749;51.398;5.466;2023-07-29T07:52:56;3.28;;;1.40;;
9420;SDS011;4749;51.398;5.466;2023-07-29T07:55:23;2.80;;;1.20;;
9420;SDS011;4749;51.398;5.466;2023-07-29T07:57:50;1.70;;;0.90;;
9420;SDS011;4749;51.398;5.466;2023-07-29T08:00:17;1.20;;;0.90;;
9420;SDS011;4749;51.398;5.466;2023-07-29T08:02:46;2.75;;;1.23;;
9420;SDS011;4749;51.398;5.466;2023-07-29T08:05:13;2.17;;;1.10;;
9420;SDS011;4749;51.398;5.466;2023-07-29T08:07:40;1.38;;;1.00;;
9420;SDS011;4749;51.398;5.466;2023-07-29T08:10:07;2.35;;;0.90;;
9420;SDS011;4749;51.398;5.466;2023-07-29T08:12:34;2.53;;;1.02;;
9420;SDS011;4749;51.398;5.466;2023-07-29T08:15:01;1.23;;;1.10;;
9420;SDS011;4749;51.398;5.466;2023-07-29T08:17:29;2.63;;;1.20;;
9420;SDS011;4749;51.398;5.466;2023-07-29T08:19:56;2.65;;;1.13;;
9420;SDS011;4749;51.398;5.466;2023-07-29T08:22:23;1.55;;;1.00;;
9420;SDS011;4749;51.398;5.466;2023-07-29T08:24:50;3.65;;;1.30;;
9420;SDS011;4749;51.398;5.466;2023-07-29T08:27:17;1.48;;;1.10;;
9420;SDS011;4749;51.398;5.466;2023-07-29T08:29:44;1.38;;;0.80;;
9420;SDS011;4749;51.398;5.466;2023-07-29T08:32:11;0.93;;;0.90;;
9420;SDS011;4749;51.398;5.466;2023-07-29T08:34:38;1.55;;;0.90;;
9420;SDS011;4749;51.398;5.466;2023-07-29T08:37:05;1.35;;;0.98;;
9420;SDS011;4749;51.398;5.466;2023-07-29T08:39:33;2.88;;;0.98;;
9420;SDS011;4749;51.398;5.466;2023-07-29T08:42:03;2.42;;;1.20;;
9420;SDS011;4749;51.398;5.466;2023-07-29T08:44:40;1.83;;;1.00;;
9420;SDS011;4749;51.398;5.466;2023-07-29T08:47:09;1.27;;;0.80;;
9420;SDS011;4749;51.398;5.466;2023-07-29T08:49:39;2.03;;;1.20;;
9420;SDS011;4749;51.398;5.466;2023-07-29T08:52:07;1.00;;;0.90;;
9420;SDS011;4749;51.398;5.466;2023-07-29T08:54:36;2.38;;;0.90;;
9420;SDS011;4749;51.398;5.466;2023-07-29T08:57:03;1.85;;;0.90;;
9420;SDS011;4749;51.398;5.466;2023-07-29T08:59:31;2.30;;;1.00;;
9420;SDS011;4749;51.398;5.466;2023-07-29T09:01:59;5.65;;;0.98;;
9420;SDS011;4749;51.398;5.466;2023-07-29T09:04:26;1.20;;;0.90;;
9420;SDS011;4749;51.398;5.466;2023-07-29T09:06:55;1.48;;;1.08;;
9420;SDS011;4749;51.398;5.466;2023-07-29T09:09:22;2.33;;;1.00;;
9420;SDS011;4749;51.398;5.466;2023-07-29T09:11:51;2.00;;;1.30;;
9420;SDS011;4749;51.398;5.466;2023-07-29T09:14:19;2.08;;;1.10;;
9420;SDS011;4749;51.398;5.466;2023-07-29T09:16:46;1.42;;;0.90;;
9420;SDS011;4749;51.398;5.466;2023-07-29T09:19:14;3.25;;;0.90;;
9420;SDS011;4749;51.398;5.466;2023-07-29T09:21:42;3.17;;;0.98;;
9420;SDS011;4749;51.398;5.466;2023-07-29T09:24:12;2.20;;;0.90;;
9420;SDS011;4749;51.398;5.466;2023-07-29T09:26:47;1.35;;;0.90;;
9420;SDS011;4749;51.398;5.466;2023-07-29T09:29:16;1.40;;;0.90;;
9420;SDS011;4749;51.398;5.466;2023-07-29T09:31:50;1.23;;;0.85;;
9420;SDS011;4749;51.398;5.466;2023-07-29T09:34:17;1.55;;;0.90;;
9420;SDS011;4749;51.398;5.466;2023-07-29T09:36:44;1.45;;;0.63;;
9420;SDS011;4749;51.398;5.466;2023-07-29T09:39:12;1.33;;;0.90;;
9420;SDS011;4749;51.398;5.466;2023-07-29T09:41:39;1.17;;;0.90;;
9420;SDS011;4749;51.398;5.466;2023-07-29T09:44:06;1.08;;;0.88;;
9420;SDS011;4749;51.398;5.466;2023-07-29T09:46:35;1.55;;;0.90;;
9420;SDS011;4749;51.398;5.466;2023-07-29T09:49:07;2.28;;;1.00;;
9420;SDS011;4749;51.398;5.466;2023-07-29T09:51:38;2.20;;;1.00;;
9420;SDS011;4749;51.398;5.466;2023-07-29T09:54:06;1.15;;;1.00;;
9420;SDS011;4749;51.398;5.466;2023-07-29T09:56:39;2.75;;;1.10;;
9420;SDS011;4749;51.398;5.466;2023-07-29T09:59:09;1.45;;;0.93;;
9420;SDS011;4749;51.398;5.466;2023-07-29T10:01:38;1.63;;;0.88;;
9420;SDS011;4749;51.398;5.466;2023-07-29T10:04:06;1.00;;;0.90;;
9420;SDS011;4749;51.398;5.466;2023-07-29T10:06:38;1.58;;;0.90;;
9420;SDS011;4749;51.398;5.466;2023-07-29T10:09:06;1.77;;;1.00;;
9420;SDS011;4749;51.398;5.466;2023-07-29T10:11:33;2.03;;;1.13;;
9420;SDS011;4749;51.398;5.466;2023-07-29T10:14:02;1.25;;;1.13;;
9420;SDS011;4749;51.398;5.466;2023-07-29T10:16:34;1.60;;;0.90;;
9420;SDS011;4749;51.398;5.466;2023-07-29T10:19:05;2.08;;;1.02;;
9420;SDS011;4749;51.398;5.466;2023-07-29T10:21:34;1.63;;;1.17;;
9420;SDS011;4749;51.398;5.466;2023-07-29T10:24:08;1.10;;;0.95;;
9420;SDS011;4749;51.398;5.466;2023-07-29T10:26:42;4.32;;;1.33;;
9420;SDS011;4749;51.398;5.466;2023-07-29T10:29:14;2.13;;;1.05;;
9420;SDS011;4749;51.398;5.466;2023-07-29T10:31:52;1.65;;;0.90;;
9420;SDS011;4749;51.398;5.466;2023-07-29T10:34:21;0.85;;;0.85;;
9420;SDS011;4749;51.398;5.466;2023-07-29T10:36:49;1.45;;;1.00;;
9420;SDS011;4749;51.398;5.466;2023-07-29T10:39:20;3.65;;;1.05;;
9420;SDS011;4749;51.398;5.466;2023-07-29T10:41:54;1.80;;;1.15;;
9420;SDS011;4749;51.398;5.466;2023-07-29T10:47:17;1.05;;;0.98;;
9420;SDS011;4749;51.398;5.466;2023-07-29T10:49:51;1.48;;;1.05;;
9420;SDS011;4749;51.398;5.466;2023-07-29T10:52:31;1.13;;;1.02;;
9420;SDS011;4749;51.398;5.466;2023-07-29T10:55:01;1.83;;;1.20;;
9420;SDS011;4749;51.398;5.466;2023-07-29T10:57:35;1.23;;;0.85;;
9420;SDS011;4749;51.398;5.466;2023-07-29T11:00:07;1.65;;;1.00;;
9420;SDS011;4749;51.398;5.466;2023-07-29T11:02:35;2.92;;;1.20;;
9420;SDS011;4749;51.398;5.466;2023-07-29T11:05:05;1.58;;;0.95;;
9420;SDS011;4749;51.398;5.466;2023-07-29T11:07:48;6.85;;;1.13;;
9420;SDS011;4749;51.398;5.466;2023-07-29T11:10:16;1.38;;;1.10;;
9420;SDS011;4749;51.398;5.466;2023-07-29T11:12:47;1.25;;;0.80;;
9420;SDS011;4749;51.398;5.466;2023-07-29T11:17:59;1.75;;;1.10;;
9420;SDS011;4749;51.398;5.466;2023-07-29T11:20:28;1.75;;;1.20;;
9420;SDS011;4749;51.398;5.466;2023-07-29T11:22:59;1.25;;;1.00;;
9420;SDS011;4749;51.398;5.466;2023-07-29T11:25:29;2.55;;;1.05;;
9420;SDS011;4749;51.398;5.466;2023-07-29T11:27:58;3.88;;;1.23;;
9420;SDS011;4749;51.398;5.466;2023-07-29T11:30:29;2.90;;;1.02;;
9420;SDS011;4749;51.398;5.466;2023-07-29T11:32:57;1.27;;;1.08;;
9420;SDS011;4749;51.398;5.466;2023-07-29T11:35:25;2.50;;;1.10;;
9420;SDS011;4749;51.398;5.466;2023-07-29T11:37:54;3.08;;;1.30;;
9420;SDS011;4749;51.398;5.466;2023-07-29T11:40:23;3.00;;;1.40;;
9420;SDS011;4749;51.398;5.466;2023-07-29T11:42:51;4.45;;;1.17;;
9420;SDS011;4749;51.398;5.466;2023-07-29T11:45:19;2.60;;;1.20;;
9420;SDS011;4749;51.398;5.466;2023-07-29T11:47:57;1.75;;;1.30;;
9420;SDS011;4749;51.398;5.466;2023-07-29T11:50:25;2.38;;;1.20;;
9420;SDS011;4749;51.398;5.466;2023-07-29T11:52:52;1.80;;;1.20;;
9420;SDS011;4749;51.398;5.466;2023-07-29T11:55:20;3.30;;;1.30;;
9420;SDS011;4749;51.398;5.466;2023-07-29T11:57:49;2.20;;;1.45;;
9420;SDS011;4749;51.398;5.466;2023-07-29T12:00:18;2.72;;;1.13;;
9420;SDS011;4749;51.398;5.466;2023-07-29T12:02:48;1.50;;;1.20;;
9420;SDS011;4749;51.398;5.466;2023-07-29T12:05:16;3.33;;;1.50;;
9420;SDS011;4749;51.398;5.466;2023-07-29T12:07:47;2.13;;;1.60;;
9420;SDS011;4749;51.398;5.466;2023-07-29T12:10:15;10.02;;;2.95;;
9420;SDS011;4749;51.398;5.466;2023-07-29T12:12:46;2.25;;;1.38;;
9420;SDS011;4749;51.398;5.466;2023-07-29T12:15:27;1.73;;;1.40;;
9420;SDS011;4749;51.398;5.466;2023-07-29T12:17:56;1.98;;;1.40;;
9420;SDS011;4749;51.398;5.466;2023-07-29T12:20:25;1.65;;;1.33;;
9420;SDS011;4749;51.398;5.466;2023-07-29T12:22:57;1.63;;;1.20;;
9420;SDS011;4749;51.398;5.466;2023-07-29T12:25:29;2.83;;;1.77;;
9420;SDS011;4749;51.398;5.466;2023-07-29T12:28:01;2.50;;;1.58;;
9420;SDS011;4749;51.398;5.466;2023-07-29T12:30:31;3.08;;;1.65;;
9420;SDS011;4749;51.398;5.466;2023-07-29T12:32:58;2.40;;;1.60;;
9420;SDS011;4749;51.398;5.466;2023-07-29T12:35:33;12.23;;;2.35;;
9420;SDS011;4749;51.398;5.466;2023-07-29T12:38:04;10.90;;;2.33;;
9420;SDS011;4749;51.398;5.466;2023-07-29T12:40:31;9.02;;;1.70;;
9420;SDS011;4749;51.398;5.466;2023-07-29T12:42:58;4.35;;;1.17;;
9420;SDS011;4749;51.398;5.466;2023-07-29T12:45:26;2.78;;;1.10;;
9420;SDS011;4749;51.398;5.466;2023-07-29T12:47:55;4.18;;;1.00;;
9420;SDS011;4749;51.398;5.466;2023-07-29T12:50:22;2.22;;;0.93;;
9420;SDS011;4749;51.398;5.466;2023-07-29T12:52:49;6.68;;;1.25;;
9420;SDS011;4749;51.398;5.466;2023-07-29T12:55:17;6.00;;;1.00;;
9420;SDS011;4749;51.398;5.466;2023-07-29T12:57:49;2.60;;;0.93;;
9420;SDS011;4749;51.398;5.466;2023-07-29T13:00:17;2.33;;;0.70;;
9420;SDS011;4749;51.398;5.466;2023-07-29T13:02:44;2.00;;;1.13;;
9420;SDS011;4749;51.398;5.466;2023-07-29T13:05:12;3.03;;;1.10;;
9420;SDS011;4749;51.398;5.466;2023-07-29T13:07:39;3.55;;;0.98;;
9420;SDS011;4749;51.398;5.466;2023-07-29T13:10:07;2.25;;;0.80;;
9420;SDS011;4749;51.398;5.466;2023-07-29T13:12:36;1.25;;;0.75;;
9420;SDS011;4749;51.398;5.466;2023-07-29T13:15:03;3.67;;;1.05;;
9420;SDS011;4749;51.398;5.466;2023-07-29T13:17:32;2.35;;;1.20;;
9420;SDS011;4749;51.398;5.466;2023-07-29T13:20:00;2.88;;;1.10;;
9420;SDS011;4749;51.398;5.466;2023-07-29T13:22:27;2.63;;;1.23;;
9420;SDS011;4749;51.398;5.466;2023-07-29T13:24:54;5.90;;;1.35;;
9420;SDS011;4749;51.398;5.466;2023-07-29T13:27:21;5.43;;;1.20;;
9420;SDS011;4749;51.398;5.466;2023-07-29T13:29:50;3.67;;;1.10;;
9420;SDS011;4749;51.398;5.466;2023-07-29T13:32:17;2.92;;;1.55;;
9420;SDS011;4749;51.398;5.466;2023-07-29T13:34:44;1.98;;;1.33;;
9420;SDS011;4749;51.398;5.466;2023-07-29T13:37:11;2.25;;;1.52;;
9420;SDS011;4749;51.398;5.466;2023-07-29T13:39:38;2.33;;;1.40;;
9420;SDS011;4749;51.398;5.466;2023-07-29T13:42:05;3.17;;;1.38;;
9420;SDS011;4749;51.398;5.466;2023-07-29T13:44:33;2.03;;;1.42;;
9420;SDS011;4749;51.398;5.466;2023-07-29T13:47:00;1.83;;;1.30;;
9420;SDS011;4749;51.398;5.466;2023-07-29T13:49:27;6.57;;;1.38;;
9420;SDS011;4749;51.398;5.466;2023-07-29T13:51:54;2.95;;;1.45;;
9420;SDS011;4749;51.398;5.466;2023-07-29T13:54:21;4.40;;;1.50;;
9420;SDS011;4749;51.398;5.466;2023-07-29T13:56:48;1.83;;;1.30;;
9420;SDS011;4749;51.398;5.466;2023-07-29T13:59:18;1.17;;;1.08;;
9420;SDS011;4749;51.398;5.466;2023-07-29T14:01:45;1.95;;;1.30;;
9420;SDS011;4749;51.398;5.466;2023-07-29T14:04:12;2.42;;;1.58;;
9420;SDS011;4749;51.398;5.466;2023-07-29T14:06:39;1.50;;;1.23;;
9420;SDS011;4749;51.398;5.466;2023-07-29T14:09:11;2.70;;;1.27;;
9420;SDS011;4749;51.398;5.466;2023-07-29T14:11:38;2.25;;;1.40;;
9420;SDS011;4749;51.398;5.466;2023-07-29T14:14:06;1.60;;;1.17;;
9420;SDS011;4749;51.398;5.466;2023-07-29T14:16:34;2.35;;;1.42;;
9420;SDS011;4749;51.398;5.466;2023-07-29T14:19:01;1.17;;;0.98;;
9420;SDS011;4749;51.398;5.466;2023-07-29T14:21:29;1.45;;;1.20;;
9420;SDS011;4749;51.398;5.466;2023-07-29T14:23:55;2.00;;;1.50;;
9420;SDS011;4749;51.398;5.466;2023-07-29T14:26:23;2.63;;;1.38;;
9420;SDS011;4749;51.398;5.466;2023-07-29T14:28:50;1.60;;;1.13;;
9420;SDS011;4749;51.398;5.466;2023-07-29T14:31:17;1.20;;;1.05;;
9420;SDS011;4749;51.398;5.466;2023-07-29T14:33:45;2.83;;;1.50;;
9420;SDS011;4749;51.398;5.466;2023-07-29T14:36:12;2.03;;;1.00;;
9420;SDS011;4749;51.398;5.466;2023-07-29T14:38:39;1.90;;;1.17;;
9420;SDS011;4749;51.398;5.466;2023-07-29T14:41:06;1.20;;;1.10;;
9420;SDS011;4749;51.398;5.466;2023-07-29T14:43:34;1.73;;;1.20;;
9420;SDS011;4749;51.398;5.466;2023-07-29T14:46:01;1.55;;;1.30;;
9420;SDS011;4749;51.398;5.466;2023-07-29T14:48:29;2.13;;;1.38;;
9420;SDS011;4749;51.398;5.466;2023-07-29T14:50:56;3.72;;;1.50;;
9420;SDS011;4749;51.398;5.466;2023-07-29T14:53:23;1.30;;;1.20;;
9420;SDS011;4749;51.398;5.466;2023-07-29T14:55:51;4.90;;;1.20;;
9420;SDS011;4749;51.398;5.466;2023-07-29T14:58:18;1.40;;;1.20;;
9420;SDS011;4749;51.398;5.466;2023-07-29T15:00:45;3.03;;;1.38;;
9420;SDS011;4749;51.398;5.466;2023-07-29T15:03:12;3.75;;;1.50;;
9420;SDS011;4749;51.398;5.466;2023-07-29T15:05:40;1.40;;;1.30;;
9420;SDS011;4749;51.398;5.466;2023-07-29T15:08:07;1.60;;;1.20;;
9420;SDS011;4749;51.398;5.466;2023-07-29T15:10:34;1.67;;;1.40;;
9420;SDS011;4749;51.398;5.466;2023-07-29T15:13:01;2.15;;;1.30;;
9420;SDS011;4749;51.398;5.466;2023-07-29T15:15:29;1.65;;;1.40;;
9420;SDS011;4749;51.398;5.466;2023-07-29T15:17:56;3.13;;;1.70;;
9420;SDS011;4749;51.398;5.466;2023-07-29T15:20:24;1.75;;;1.63;;
9420;SDS011;4749;51.398;5.466;2023-07-29T15:22:51;3.53;;;1.55;;
9420;SDS011;4749;51.398;5.466;2023-07-29T15:25:18;1.80;;;1.58;;
9420;SDS011;4749;51.398;5.466;2023-07-29T15:27:45;2.03;;;1.48;;
9420;SDS011;4749;51.398;5.466;2023-07-29T15:30:13;2.50;;;1.67;;
9420;SDS011;4749;51.398;5.466;2023-07-29T15:32:40;2.35;;;1.50;;
9420;SDS011;4749;51.398;5.466;2023-07-29T15:35:11;3.25;;;1.55;;